Shelby — WCV6157 — position and weather

sailwx.info

Track history (hours):
 
Tides and Currents Weather Stations Pressure Air Temp Water Temp Dewpoint Dewpoint Depression Visibility Wind Speed Wind Dir Waves Ship Positions

Shelby

Owner: WEEKS MARINE, INC., CRANFORD, NJ. More information available from US FCC via Universal Licensing System and Coast Guard Vessel Documentation Center.

Last reported at 2014-Dec-18 01:33 UTC. Time now 2014-Dec-18 02:33 UTC.
Position N 40°38' W 074°12'.

Length 22 m; draft 3.1 m.

Type: Tug. MMSI: 366939080.

Date/timePositionNaut miles runAvg speedWind from/ knotsBaromVisibWave heightAir tempDewpointWater temp
2014-Dec-18 01:33N 40°38' W 074°12'0 0.0
2014-Dec-18 00:34N 40°38' W 074°12'9 2.9
2014-Dec-17 21:22N 40°30' W 074°16'0 0.2
2014-Dec-17 19:11N 40°30' W 074°15'0 0.6
2014-Dec-17 18:29N 40°30' W 074°16'0 0.1
2014-Dec-17 14:24N 40°30' W 074°15'0 0.1
2014-Dec-17 06:20N 40°30' W 074°16'0 0.0
2014-Dec-17 03:27N 40°30' W 074°16'0 0.0
2014-Dec-17 02:22N 40°30' W 074°16'0 0.0
2014-Dec-17 00:31N 40°30' W 074°16'0 0.0
2014-Dec-16 23:33N 40°30' W 074°16'5 4.7
2014-Dec-16 22:30N 40°30' W 074°09'9 9.8
2014-Dec-16 21:33N 40°28' W 073°57'4110.1
2014-Dec-16 17:32N 39°47' W 074°03'1010.2
2014-Dec-16 16:32N 39°38' W 074°08'9 0.3
2014-Dec-15 06:25N 39°30' W 074°13'7 8.2
2014-Dec-15 05:33N 39°36' W 074°09'8 8.0
2014-Dec-15 04:34N 39°43' W 074°05'9 8.2
2014-Dec-15 03:31N 39°52' W 074°03'12 8.5
2014-Dec-15 02:06N 40°04' W 074°01'8 8.5
2014-Dec-15 01:13N 40°11' W 073°59'6 8.6
2014-Dec-15 00:32N 40°17' W 073°57'8 8.4
2014-Dec-14 23:32N 40°25' W 073°57'8 7.7
2014-Dec-14 22:28N 40°32' W 074°02'8 8.8
2014-Dec-14 21:33N 40°40' W 074°04'1 0.6
2014-Dec-14 20:34N 40°41' W 074°05'2 2.3
2014-Dec-14 19:33N 40°39' W 074°03'10 9.5
2014-Dec-14 18:31N 40°29' W 073°59'9 9.9
2014-Dec-14 17:34N 40°20' W 073°56'3210.0
2014-Dec-14 14:19N 39°48' W 074°03'810.2
2014-Dec-14 13:33N 39°41' W 074°06'9 0.2
2014-Dec-12 23:04N 39°32' W 074°11'4 7.0
2014-Dec-12 22:33N 39°36' W 074°09'7 7.0
2014-Dec-12 21:32N 39°42' W 074°05'7 6.9
2014-Dec-12 20:33N 39°49' W 074°03'23 7.0
2014-Dec-12 17:17N 40°11' W 073°59'5 6.6
2014-Dec-12 16:31N 40°16' W 073°57'7 6.8
2014-Dec-12 15:27N 40°24' W 073°57'6 5.9
2014-Dec-12 14:29N 40°29' W 073°59'6 5.4
2014-Dec-12 13:21N 40°35' W 074°02'5 6.7
2014-Dec-12 12:33N 40°40' W 074°04'1 0.7
2014-Dec-12 11:34N 40°40' W 074°04'0 0.0
2014-Dec-12 10:34N 40°40' W 074°04'0 0.0
2014-Dec-12 09:34N 40°40' W 074°04'0 0.0
2014-Dec-12 08:33N 40°40' W 074°04'0 0.2
2014-Dec-12 07:34N 40°41' W 074°05'0 0.0
2014-Dec-12 06:33N 40°41' W 074°05'0 0.0
2014-Dec-12 05:34N 40°41' W 074°05'0 0.0
2014-Dec-12 04:33N 40°41' W 074°05'0 0.0
2014-Dec-12 03:34N 40°41' W 074°05'0 0.0
2014-Dec-12 02:34N 40°41' W 074°05'0 0.0
2014-Dec-12 01:34N 40°41' W 074°05'0 0.0
2014-Dec-12 00:34N 40°41' W 074°05'0 0.0
2014-Dec-11 23:33N 40°41' W 074°05'0 0.2
2014-Dec-11 22:33N 40°40' W 074°04'0 0.0
2014-Dec-11 21:34N 40°41' W 074°04'2 2.3
2014-Dec-11 20:33N 40°39' W 074°07'0 0.0
2014-Dec-11 19:33N 40°39' W 074°07'4 4.0
2014-Dec-11 18:33N 40°38' W 074°12'0 0.0
2014-Dec-11 17:34N 40°38' W 074°12'0 0.0
2014-Dec-11 16:33N 40°38' W 074°12'0 0.0
2014-Dec-11 15:34N 40°38' W 074°12'2 2.2
2014-Dec-11 14:33N 40°39' W 074°09'4 3.8
2014-Dec-11 13:34N 40°41' W 074°05'0 0.0
2014-Dec-11 12:34N 40°41' W 074°05'0 0.0
2014-Dec-11 11:33N 40°41' W 074°05'0 0.0
2014-Dec-11 10:34N 40°41' W 074°05'0 0.0
2014-Dec-11 09:33N 40°41' W 074°05'0 0.0
2014-Dec-11 08:34N 40°41' W 074°05'0 0.0
2014-Dec-11 07:34N 40°41' W 074°05'0 0.0
2014-Dec-11 06:34N 40°41' W 074°05'0 0.0
2014-Dec-11 05:34N 40°41' W 074°05'0 0.0
2014-Dec-11 04:34N 40°41' W 074°05'0 0.0
2014-Dec-11 03:34N 40°41' W 074°05'0 0.0
2014-Dec-11 02:34N 40°41' W 074°05'0 0.0
2014-Dec-11 01:33N 40°41' W 074°05'0 0.0
2014-Dec-11 00:34N 40°41' W 074°05'0 0.0
2014-Dec-10 23:34N 40°41' W 074°05'0 0.0
2014-Dec-10 22:32N 40°41' W 074°05'0 0.0
2014-Dec-10 21:33N 40°41' W 074°05'0 0.0
2014-Dec-10 20:33N 40°41' W 074°05'0 0.0
2014-Dec-10 19:34N 40°41' W 074°05'0 0.0
2014-Dec-10 18:34N 40°41' W 074°05'1 1.5
2014-Dec-10 17:34N 40°39' W 074°05'3 3.1
2014-Dec-10 16:33N 40°41' W 074°08'6 5.7
2014-Dec-10 15:34N 40°41' W 074°01'2 1.8
2014-Dec-10 14:34N 40°42' W 073°58'0 0.0
2014-Dec-10 13:34N 40°42' W 073°58'1 0.6
2014-Dec-10 12:34N 40°42' W 073°59'3 3.3
2014-Dec-10 11:34N 40°40' W 074°02'1 1.5
2014-Dec-10 10:34N 40°40' W 074°04'0 0.0
2014-Dec-10 09:33N 40°40' W 074°04'0 0.0
2014-Dec-10 08:33N 40°40' W 074°04'0 0.0
2014-Dec-10 07:34N 40°40' W 074°04'0 0.0
2014-Dec-10 06:33N 40°40' W 074°04'0 0.0
2014-Dec-10 05:34N 40°40' W 074°04'0 0.0
2014-Dec-10 04:34N 40°40' W 074°04'0 0.0
2014-Dec-10 03:33N 40°40' W 074°04'1 1.3
2014-Dec-10 02:34N 40°39' W 074°05'3 3.3
2014-Dec-10 01:34N 40°41' W 074°09'4 3.5
2014-Dec-10 00:34N 40°40' W 074°04'1 0.5
2014-Dec-09 23:33N 40°41' W 074°05'0 0.0
2014-Dec-09 22:33N 40°41' W 074°05'0 0.0
2014-Dec-09 21:34N 40°41' W 074°05'0 0.0
2014-Dec-09 20:34N 40°41' W 074°05'0 0.0
2014-Dec-09 19:34N 40°41' W 074°05'0 0.0
2014-Dec-09 18:34N 40°41' W 074°05'0 0.0
2014-Dec-09 17:33N 40°41' W 074°05'0 0.0
2014-Dec-09 16:34N 40°41' W 074°05'0 0.0
2014-Dec-09 15:33N 40°41' W 074°05'0 0.0
2014-Dec-09 14:34N 40°41' W 074°05'0 0.0
2014-Dec-09 13:33N 40°41' W 074°05'2 2.4
2014-Dec-09 12:34N 40°41' W 074°01'1 1.3
2014-Dec-09 11:33N 40°40' W 074°02'2 1.7
2014-Dec-09 10:34N 40°41' W 074°05'0 0.0
2014-Dec-09 09:34N 40°41' W 074°05'0 0.0
2014-Dec-09 08:33N 40°41' W 074°05'0 0.0
2014-Dec-09 07:33N 40°41' W 074°05'0 0.0
2014-Dec-09 06:34N 40°41' W 074°05'0 0.0
2014-Dec-09 05:34N 40°41' W 074°05'0 0.0
2014-Dec-09 04:33N 40°41' W 074°05'0 0.0
2014-Dec-09 03:33N 40°41' W 074°05'0 0.0
2014-Dec-09 02:33N 40°41' W 074°05'0 0.0
2014-Dec-09 01:34N 40°41' W 074°05'0 0.0
2014-Dec-09 00:33N 40°41' W 074°05'1 0.9
2014-Dec-08 23:34N 40°40' W 074°04'3 2.7
2014-Dec-08 22:33N 40°37' W 074°03'4 3.5
2014-Dec-08 21:34N 40°41' W 074°05'0 0.0
2014-Dec-08 20:33N 40°41' W 074°05'0 0.1
2014-Dec-08 19:34N 40°41' W 074°05'0 0.0
2014-Dec-08 18:34N 40°41' W 074°05'0 0.0
2014-Dec-08 17:34N 40°41' W 074°05'0 0.0
2014-Dec-08 16:34N 40°41' W 074°05'0 0.0
2014-Dec-08 15:33N 40°41' W 074°05'0 0.1
2014-Dec-08 14:34N 40°41' W 074°05'0 0.2
2014-Dec-08 13:33N 40°41' W 074°05'1 1.2
2014-Dec-08 12:34N 40°40' W 074°04'2 2.0
2014-Dec-08 11:33N 40°38' W 074°03'3 3.1
2014-Dec-08 10:33N 40°41' W 074°04'0 0.0
2014-Dec-08 09:34N 40°41' W 074°04'0 0.0
2014-Dec-08 08:34N 40°41' W 074°04'0 0.0
2014-Dec-08 07:34N 40°41' W 074°04'0 0.0
2014-Dec-08 06:34N 40°41' W 074°04'0 0.0
2014-Dec-08 05:34N 40°41' W 074°04'0 0.0
2014-Dec-08 04:33N 40°41' W 074°04'0 0.0
2014-Dec-08 03:34N 40°41' W 074°04'0 0.0
2014-Dec-08 02:34N 40°41' W 074°04'0 0.0
2014-Dec-08 01:34N 40°41' W 074°04'  
Track history (hours):
 
Tides and Currents Weather Stations Pressure Air Temp Water Temp Dewpoint Dewpoint Depression Visibility Wind Speed Wind Dir Waves Ship Positions

Shelby

Owner: WEEKS MARINE, INC., CRANFORD, NJ. More information available from US FCC via Universal Licensing System and Coast Guard Vessel Documentation Center.

Last reported at 2014-Dec-18 01:33 UTC. Time now 2014-Dec-18 02:33 UTC.
Position N 40°38' W 074°12'.

Length 22 m; draft 3.1 m.

Type: Tug. MMSI: 366939080.

Date/timePositionNaut miles runAvg speedWind from/ knotsBaromVisibWave heightAir tempDewpointWater temp
2014-Dec-18 01:33N 40°38' W 074°12'0 0.0
2014-Dec-18 00:34N 40°38' W 074°12'9 2.9
2014-Dec-17 21:22N 40°30' W 074°16'0 0.2
2014-Dec-17 19:11N 40°30' W 074°15'0 0.6
2014-Dec-17 18:29N 40°30' W 074°16'0 0.1
2014-Dec-17 14:24N 40°30' W 074°15'0 0.1
2014-Dec-17 06:20N 40°30' W 074°16'0 0.0
2014-Dec-17 03:27N 40°30' W 074°16'0 0.0
2014-Dec-17 02:22N 40°30' W 074°16'0 0.0
2014-Dec-17 00:31N 40°30' W 074°16'0 0.0
2014-Dec-16 23:33N 40°30' W 074°16'5 4.7
2014-Dec-16 22:30N 40°30' W 074°09'9 9.8
2014-Dec-16 21:33N 40°28' W 073°57'4110.1
2014-Dec-16 17:32N 39°47' W 074°03'1010.2
2014-Dec-16 16:32N 39°38' W 074°08'9 0.3
2014-Dec-15 06:25N 39°30' W 074°13'7 8.2
2014-Dec-15 05:33N 39°36' W 074°09'8 8.0
2014-Dec-15 04:34N 39°43' W 074°05'9 8.2
2014-Dec-15 03:31N 39°52' W 074°03'12 8.5
2014-Dec-15 02:06N 40°04' W 074°01'8 8.5
2014-Dec-15 01:13N 40°11' W 073°59'6 8.6
2014-Dec-15 00:32N 40°17' W 073°57'8 8.4
2014-Dec-14 23:32N 40°25' W 073°57'8 7.7
2014-Dec-14 22:28N 40°32' W 074°02'8 8.8
2014-Dec-14 21:33N 40°40' W 074°04'1 0.6
2014-Dec-14 20:34N 40°41' W 074°05'2 2.3
2014-Dec-14 19:33N 40°39' W 074°03'10 9.5
2014-Dec-14 18:31N 40°29' W 073°59'9 9.9
2014-Dec-14 17:34N 40°20' W 073°56'3210.0
2014-Dec-14 14:19N 39°48' W 074°03'810.2
2014-Dec-14 13:33N 39°41' W 074°06'9 0.2
2014-Dec-12 23:04N 39°32' W 074°11'4 7.0
2014-Dec-12 22:33N 39°36' W 074°09'7 7.0
2014-Dec-12 21:32N 39°42' W 074°05'7 6.9
2014-Dec-12 20:33N 39°49' W 074°03'23 7.0
2014-Dec-12 17:17N 40°11' W 073°59'5 6.6
2014-Dec-12 16:31N 40°16' W 073°57'7 6.8
2014-Dec-12 15:27N 40°24' W 073°57'6 5.9
2014-Dec-12 14:29N 40°29' W 073°59'6 5.4
2014-Dec-12 13:21N 40°35' W 074°02'5 6.7
2014-Dec-12 12:33N 40°40' W 074°04'1 0.7
2014-Dec-12 11:34N 40°40' W 074°04'0 0.0
2014-Dec-12 10:34N 40°40' W 074°04'0 0.0
2014-Dec-12 09:34N 40°40' W 074°04'0 0.0
2014-Dec-12 08:33N 40°40' W 074°04'0 0.2
2014-Dec-12 07:34N 40°41' W 074°05'0 0.0
2014-Dec-12 06:33N 40°41' W 074°05'0 0.0
2014-Dec-12 05:34N 40°41' W 074°05'0 0.0
2014-Dec-12 04:33N 40°41' W 074°05'0 0.0
2014-Dec-12 03:34N 40°41' W 074°05'0 0.0
2014-Dec-12 02:34N 40°41' W 074°05'0 0.0
2014-Dec-12 01:34N 40°41' W 074°05'0 0.0
2014-Dec-12 00:34N 40°41' W 074°05'0 0.0
2014-Dec-11 23:33N 40°41' W 074°05'0 0.2
2014-Dec-11 22:33N 40°40' W 074°04'0 0.0
2014-Dec-11 21:34N 40°41' W 074°04'2 2.3
2014-Dec-11 20:33N 40°39' W 074°07'0 0.0
2014-Dec-11 19:33N 40°39' W 074°07'4 4.0
2014-Dec-11 18:33N 40°38' W 074°12'0 0.0
2014-Dec-11 17:34N 40°38' W 074°12'0 0.0
2014-Dec-11 16:33N 40°38' W 074°12'0 0.0
2014-Dec-11 15:34N 40°38' W 074°12'2 2.2
2014-Dec-11 14:33N 40°39' W 074°09'4 3.8
2014-Dec-11 13:34N 40°41' W 074°05'0 0.0
2014-Dec-11 12:34N 40°41' W 074°05'0 0.0
2014-Dec-11 11:33N 40°41' W 074°05'0 0.0
2014-Dec-11 10:34N 40°41' W 074°05'0 0.0
2014-Dec-11 09:33N 40°41' W 074°05'0 0.0
2014-Dec-11 08:34N 40°41' W 074°05'0 0.0
2014-Dec-11 07:34N 40°41' W 074°05'0 0.0
2014-Dec-11 06:34N 40°41' W 074°05'0 0.0
2014-Dec-11 05:34N 40°41' W 074°05'0 0.0
2014-Dec-11 04:34N 40°41' W 074°05'0 0.0
2014-Dec-11 03:34N 40°41' W 074°05'0 0.0
2014-Dec-11 02:34N 40°41' W 074°05'0 0.0
2014-Dec-11 01:33N 40°41' W 074°05'0 0.0
2014-Dec-11 00:34N 40°41' W 074°05'0 0.0
2014-Dec-10 23:34N 40°41' W 074°05'0 0.0
2014-Dec-10 22:32N 40°41' W 074°05'0 0.0
2014-Dec-10 21:33N 40°41' W 074°05'0 0.0
2014-Dec-10 20:33N 40°41' W 074°05'0 0.0
2014-Dec-10 19:34N 40°41' W 074°05'0 0.0
2014-Dec-10 18:34N 40°41' W 074°05'1 1.5
2014-Dec-10 17:34N 40°39' W 074°05'3 3.1
2014-Dec-10 16:33N 40°41' W 074°08'6 5.7
2014-Dec-10 15:34N 40°41' W 074°01'2 1.8
2014-Dec-10 14:34N 40°42' W 073°58'0 0.0
2014-Dec-10 13:34N 40°42' W 073°58'1 0.6
2014-Dec-10 12:34N 40°42' W 073°59'3 3.3
2014-Dec-10 11:34N 40°40' W 074°02'1 1.5
2014-Dec-10 10:34N 40°40' W 074°04'0 0.0
2014-Dec-10 09:33N 40°40' W 074°04'0 0.0
2014-Dec-10 08:33N 40°40' W 074°04'0 0.0
2014-Dec-10 07:34N 40°40' W 074°04'0 0.0
2014-Dec-10 06:33N 40°40' W 074°04'0 0.0
2014-Dec-10 05:34N 40°40' W 074°04'0 0.0
2014-Dec-10 04:34N 40°40' W 074°04'0 0.0
2014-Dec-10 03:33N 40°40' W 074°04'1 1.3
2014-Dec-10 02:34N 40°39' W 074°05'3 3.3
2014-Dec-10 01:34N 40°41' W 074°09'4 3.5
2014-Dec-10 00:34N 40°40' W 074°04'1 0.5
2014-Dec-09 23:33N 40°41' W 074°05'0 0.0
2014-Dec-09 22:33N 40°41' W 074°05'0 0.0
2014-Dec-09 21:34N 40°41' W 074°05'0 0.0
2014-Dec-09 20:34N 40°41' W 074°05'0 0.0
2014-Dec-09 19:34N 40°41' W 074°05'0 0.0
2014-Dec-09 18:34N 40°41' W 074°05'0 0.0
2014-Dec-09 17:33N 40°41' W 074°05'0 0.0
2014-Dec-09 16:34N 40°41' W 074°05'0 0.0
2014-Dec-09 15:33N 40°41' W 074°05'0 0.0
2014-Dec-09 14:34N 40°41' W 074°05'0 0.0
2014-Dec-09 13:33N 40°41' W 074°05'2 2.4
2014-Dec-09 12:34N 40°41' W 074°01'1 1.3
2014-Dec-09 11:33N 40°40' W 074°02'2 1.7
2014-Dec-09 10:34N 40°41' W 074°05'0 0.0
2014-Dec-09 09:34N 40°41' W 074°05'0 0.0
2014-Dec-09 08:33N 40°41' W 074°05'0 0.0
2014-Dec-09 07:33N 40°41' W 074°05'0 0.0
2014-Dec-09 06:34N 40°41' W 074°05'0 0.0
2014-Dec-09 05:34N 40°41' W 074°05'0 0.0
2014-Dec-09 04:33N 40°41' W 074°05'0 0.0
2014-Dec-09 03:33N 40°41' W 074°05'0 0.0
2014-Dec-09 02:33N 40°41' W 074°05'0 0.0
2014-Dec-09 01:34N 40°41' W 074°05'0 0.0
2014-Dec-09 00:33N 40°41' W 074°05'1 0.9
2014-Dec-08 23:34N 40°40' W 074°04'3 2.7
2014-Dec-08 22:33N 40°37' W 074°03'4 3.5
2014-Dec-08 21:34N 40°41' W 074°05'0 0.0
2014-Dec-08 20:33N 40°41' W 074°05'0 0.1
2014-Dec-08 19:34N 40°41' W 074°05'0 0.0
2014-Dec-08 18:34N 40°41' W 074°05'0 0.0
2014-Dec-08 17:34N 40°41' W 074°05'0 0.0
2014-Dec-08 16:34N 40°41' W 074°05'0 0.0
2014-Dec-08 15:33N 40°41' W 074°05'0 0.1
2014-Dec-08 14:34N 40°41' W 074°05'0 0.2
2014-Dec-08 13:33N 40°41' W 074°05'1 1.2
2014-Dec-08 12:34N 40°40' W 074°04'2 2.0
2014-Dec-08 11:33N 40°38' W 074°03'3 3.1
2014-Dec-08 10:33N 40°41' W 074°04'0 0.0
2014-Dec-08 09:34N 40°41' W 074°04'0 0.0
2014-Dec-08 08:34N 40°41' W 074°04'0 0.0
2014-Dec-08 07:34N 40°41' W 074°04'0 0.0
2014-Dec-08 06:34N 40°41' W 074°04'0 0.0
2014-Dec-08 05:34N 40°41' W 074°04'0 0.0
2014-Dec-08 04:33N 40°41' W 074°04'0 0.0
2014-Dec-08 03:34N 40°41' W 074°04'0 0.0
2014-Dec-08 02:34N 40°41' W 074°04'0 0.0
2014-Dec-08 01:34N 40°41' W 074°04'  

Dump ship's entire track history